Time;durP1;ratioP1;P1;durP2;ratioP2;P2;SDS_P1;SDS_P2;PMS_P1;PMS_P2;Temp;Humidity;BMP_temperature;BMP_pressure;BME280_temperature;BME280_humidity;BME280_pressure;Samples;Min_cycle;Max_cycle;Signal;HPM_P1;HPM_P2
2024/03/19 00:00:45;;;;;;;16.30;9.77;;;;;;;10.73;100.00;101653.28;5242489;28;20393;-77
2024/03/19 00:03:18;;;;;;;15.70;10.82;;;;;;;10.71;100.00;101642.06;5245106;28;20056;-78
2024/03/19 00:05:49;;;;;;;18.27;11.15;;;;;;;10.73;100.00;101639.34;5246497;28;20021;-78
2024/03/19 00:08:21;;;;;;;18.02;9.98;;;;;;;10.68;100.00;101640.53;5246203;28;20036;-77
2024/03/19 00:10:53;;;;;;;21.50;11.82;;;;;;;10.66;100.00;101634.56;5242645;28;20033;-77
2024/03/19 00:13:25;;;;;;;20.35;12.38;;;;;;;10.70;100.00;101635.16;5246012;28;20032;-77
2024/03/19 00:15:57;;;;;;;19.80;12.02;;;;;;;10.74;100.00;101635.78;5244674;28;20048;-77
2024/03/19 00:18:29;;;;;;;20.08;12.18;;;;;;;10.75;100.00;101633.03;5244647;28;20033;-78
2024/03/19 00:21:01;;;;;;;20.33;13.10;;;;;;;10.69;100.00;101616.00;5240741;28;20044;-78
2024/03/19 00:23:33;;;;;;;22.90;13.07;;;;;;;10.81;100.00;101623.91;5244729;28;20028;-78
2024/03/19 00:26:07;;;;;;;19.98;13.13;;;;;;;10.83;100.00;101628.06;5244945;28;20340;-77
2024/03/19 00:28:39;;;;;;;16.63;12.85;;;;;;;10.99;100.00;101627.78;5245500;28;20048;-78
2024/03/19 00:31:11;;;;;;;21.05;13.55;;;;;;;10.92;100.00;101616.09;5244076;28;20479;-77
2024/03/19 00:33:43;;;;;;;18.80;13.48;;;;;;;10.91;100.00;101611.78;5244047;28;20052;-78
2024/03/19 00:36:17;;;;;;;20.30;13.13;;;;;;;10.95;100.00;101615.88;5245895;28;20119;-78
2024/03/19 00:38:49;;;;;;;18.23;13.50;;;;;;;11.01;100.00;101627.66;5243614;28;20036;-78
2024/03/19 00:41:21;;;;;;;18.08;13.57;;;;;;;11.01;100.00;101623.25;5241725;28;20529;-78
2024/03/19 00:43:54;;;;;;;17.90;13.68;;;;;;;11.05;100.00;101614.22;5244163;28;20051;-78
2024/03/19 00:46:25;;;;;;;17.90;13.88;;;;;;;11.08;100.00;101623.66;5245329;28;20028;-78
2024/03/19 00:48:57;;;;;;;18.55;14.65;;;;;;;11.08;100.00;101623.66;5244017;28;20375;-78
2024/03/19 00:51:29;;;;;;;19.20;15.50;;;;;;;11.06;100.00;101613.28;5243230;28;20033;-78
2024/03/19 00:54:01;;;;;;;18.23;14.50;;;;;;;11.14;100.00;101620.56;5245073;28;20406;-78
2024/03/19 00:56:33;;;;;;;21.52;14.43;;;;;;;11.12;100.00;101611.97;5243802;28;20379;-78
2024/03/19 00:59:05;;;;;;;17.63;15.32;;;;;;;11.09;100.00;101604.31;5243961;28;20040;-78
2024/03/19 01:01:37;;;;;;;16.30;14.45;;;;;;;11.17;100.00;101617.69;5242643;28;20044;-78
2024/03/19 01:04:09;;;;;;;17.60;14.95;;;;;;;11.20;100.00;101617.47;5243165;28;20041;-78
2024/03/19 01:06:41;;;;;;;18.67;14.93;;;;;;;11.20;100.00;101620.94;5250478;28;20025;-78
2024/03/19 01:09:14;;;;;;;16.42;14.27;;;;;;;11.17;100.00;101605.44;5250246;28;20044;-78
2024/03/19 01:11:46;;;;;;;17.75;13.93;;;;;;;11.26;100.00;101619.66;5250213;28;20493;-78
2024/03/19 01:14:18;;;;;;;19.23;14.48;;;;;;;11.16;100.00;101598.50;5250754;28;20036;-78
2024/03/19 01:16:50;;;;;;;18.80;14.15;;;;;;;11.27;100.00;101615.22;5252003;28;20036;-78
2024/03/19 01:19:22;;;;;;;19.40;14.38;;;;;;;11.28;100.00;101620.34;5233128;28;20588;-78
2024/03/19 01:21:54;;;;;;;19.48;14.68;;;;;;;11.30;100.00;101621.09;5248638;28;20033;-78
2024/03/19 01:24:26;;;;;;;20.45;14.25;;;;;;;11.33;100.00;101614.78;5249716;28;20452;-78
2024/03/19 01:26:58;;;;;;;15.93;12.65;;;;;;;11.32;100.00;101624.41;5251063;28;20033;-78
2024/03/19 01:29:29;;;;;;;13.98;12.45;;;;;;;11.26;100.00;101614.41;5252478;28;20059;-78
2024/03/19 01:32:01;;;;;;;19.15;13.80;;;;;;;11.32;100.00;101616.53;5251710;28;20059;-78
2024/03/19 01:34:33;;;;;;;17.67;13.60;;;;;;;11.23;100.00;101598.06;5252174;28;20041;-78
2024/03/19 01:37:05;;;;;;;19.35;13.82;;;;;;;11.31;100.00;101614.88;5250829;28;20039;-78
2024/03/19 01:39:37;;;;;;;16.73;12.90;;;;;;;11.33;100.00;101615.63;5250743;28;20836;-78
2024/03/19 01:42:09;;;;;;;16.67;14.00;;;;;;;11.31;100.00;101607.00;5251061;28;20039;-78
2024/03/19 01:44:41;;;;;;;17.42;12.93;;;;;;;11.31;100.00;101614.88;5250714;28;20055;-78
2024/03/19 01:47:13;;;;;;;15.00;13.38;;;;;;;11.32;100.00;101613.09;5252503;28;20040;-78
2024/03/19 01:49:45;;;;;;;16.58;13.57;;;;;;;11.30;100.00;101613.22;5250732;28;20521;-78
2024/03/19 01:52:17;;;;;;;16.55;13.70;;;;;;;11.33;100.00;101620.03;5250971;28;20493;-77
2024/03/19 01:54:49;;;;;;;14.82;12.18;;;;;;;11.28;100.00;101622.97;5250117;28;20033;-78
2024/03/19 01:57:21;;;;;;;18.77;13.02;;;;;;;11.16;100.00;101606.38;5251851;28;20053;-78
2024/03/19 01:59:53;;;;;;;17.58;13.25;;;;;;;11.29;100.00;101622.03;5250598;28;20039;-78
2024/03/19 02:02:31;;;;;;;16.08;13.25;;;;;;;11.39;100.00;101619.53;5248584;28;20280;-78
2024/03/19 02:05:05;;;;;;;14.10;12.23;;;;;;;11.28;100.00;101609.03;5250381;28;20553;-77
2024/03/19 02:07:36;;;;;;;18.15;13.90;;;;;;;11.32;100.00;101619.16;5251728;28;20029;-78
2024/03/19 02:10:10;;;;;;;17.58;13.90;;;;;;;11.32;100.00;101621.78;5250590;28;20032;-78
2024/03/19 02:12:42;;;;;;;;;;;;;;;12.05;100.00;101615.34;5250017;28;20039;-78
2024/03/19 02:15:13;;;;;;;18.85;13.43;;;;;;;11.39;100.00;101619.53;5252057;28;20293;-78
2024/03/19 02:17:47;;;;;;;17.98;14.48;;;;;;;11.41;100.00;101620.28;5248827;28;20041;-78
2024/03/19 02:20:19;;;;;;;15.70;13.05;;;;;;;11.41;100.00;101618.50;5246671;28;20397;-78
2024/03/19 02:22:51;;;;;;;16.52;13.48;;;;;;;11.47;100.00;101624.22;5247528;28;20423;-78
2024/03/19 02:25:23;;;;;;;21.83;14.10;;;;;;;11.43;100.00;101623.59;5248019;28;20029;-78
2024/03/19 02:27:55;;;;;;;16.95;14.02;;;;;;;11.41;100.00;101623.75;5248937;28;20025;-78
2024/03/19 02:30:27;;;;;;;16.52;14.73;;;;;;;11.42;100.00;101625.41;5246499;28;20296;-78
2024/03/19 02:32:59;;;;;;;18.23;14.68;;;;;;;11.42;100.00;101622.78;5246576;28;20389;-78
2024/03/19 02:35:31;;;;;;;18.15;14.98;;;;;;;11.45;100.00;101619.94;5248411;28;20037;-78
2024/03/19 02:38:03;;;;;;;18.65;14.93;;;;;;;11.44;100.00;101628.75;5245620;28;20039;-78
2024/03/19 02:40:35;;;;;;;19.17;15.68;;;;;;;11.45;100.00;101625.16;5246980;28;20397;-78
2024/03/19 02:43:06;;;;;;;21.10;15.25;;;;;;;11.48;100.00;101616.25;5246081;28;20053;-78
2024/03/19 02:45:38;;;;;;;20.90;17.27;;;;;;;11.48;100.00;101616.25;5246502;28;20033;-78
2024/03/19 02:48:12;;;;;;;21.00;15.40;;;;;;;11.51;100.00;101615.16;5246437;28;20508;-78
2024/03/19 02:50:45;;;;;;;21.40;16.20;;;;;;;11.52;100.00;101619.47;5246276;28;20032;-78
2024/03/19 02:53:19;;;;;;;;;;;;;;;12.27;100.00;101613.63;5228900;28;20041;-78
2024/03/19 02:55:51;;;;;;;20.83;15.60;;;;;;;11.56;100.00;101608.63;5244284;28;19939;-78
2024/03/19 02:58:23;;;;;;;19.60;16.15;;;;;;;11.56;100.00;101610.41;5242014;28;20229;-78
2024/03/19 03:00:55;;;;;;;21.98;14.95;;;;;;;11.56;100.00;101607.78;5245238;28;20036;-78
2024/03/19 03:03:27;;;;;;;19.90;14.65;;;;;;;11.63;100.00;101611.56;5244449;28;20033;-78
2024/03/19 03:05:59;;;;;;;18.90;14.57;;;;;;;11.63;100.00;101616.81;5243952;28;20255;-78
2024/03/19 03:08:31;;;;;;;16.23;14.52;;;;;;;11.66;100.00;101619.22;5246731;28;20036;-78
2024/03/19 03:11:03;;;;;;;20.45;14.68;;;;;;;11.68;100.00;101614.72;5227710;28;20067;-78
2024/03/19 03:13:35;;;;;;;17.35;13.63;;;;;;;11.58;100.00;101598.81;5246178;28;20304;-78
2024/03/19 03:16:08;;;;;;;17.70;14.13;;;;;;;11.72;100.00;101621.38;5244237;28;20043;-78
2024/03/19 03:18:40;;;;;;;21.63;14.82;;;;;;;11.71;100.00;101614.47;5245505;28;20036;-78
2024/03/19 03:21:12;;;;;;;20.02;13.98;;;;;;;11.72;100.00;101616.13;5245450;28;20502;-78
2024/03/19 03:23:44;;;;;;;19.38;14.70;;;;;;;11.75;100.00;101613.28;5245063;28;20041;-77
2024/03/19 03:26:16;;;;;;;17.38;14.45;;;;;;;11.78;100.00;101620.94;5245634;28;20040;-78
2024/03/19 03:28:48;;;;;;;18.02;14.15;;;;;;;11.79;100.00;101619.13;5244823;28;20506;-78
2024/03/19 03:31:20;;;;;;;17.77;13.95;;;;;;;11.52;100.00;101574.84;5243748;28;20036;-78
2024/03/19 03:33:52;;;;;;;19.40;14.23;;;;;;;11.78;100.00;101620.94;5246142;28;20044;-77
2024/03/19 03:36:24;;;;;;;18.75;14.05;;;;;;;11.78;100.00;101620.94;5245336;28;20032;-78
2024/03/19 03:38:56;;;;;;;17.30;12.98;;;;;;;11.79;100.00;101627.84;5246323;28;20025;-78
2024/03/19 03:41:27;;;;;;;18.98;13.77;;;;;;;11.80;100.00;101624.25;5245092;28;20517;-78
2024/03/19 03:43:59;;;;;;;18.38;12.60;;;;;;;11.69;100.00;101609.31;5246589;28;20052;-78
2024/03/19 03:46:31;;;;;;;16.92;13.20;;;;;;;11.77;100.00;101621.84;5246032;28;20032;-78
2024/03/19 03:49:03;;;;;;;17.67;13.48;;;;;;;11.84;100.00;101630.97;5245630;28;20038;-78
2024/03/19 03:51:35;;;;;;;15.68;12.88;;;;;;;11.83;100.00;101629.31;5245343;28;20036;-78
2024/03/19 03:54:07;;;;;;;15.98;12.13;;;;;;;11.84;100.00;101636.22;5245863;28;20037;-78
2024/03/19 03:56:39;;;;;;;18.25;11.93;;;;;;;11.85;100.00;101634.41;5245181;28;20388;-78
2024/03/19 03:59:11;;;;;;;14.98;11.88;;;;;;;11.86;100.00;101636.13;5244781;28;20391;-78
2024/03/19 04:01:43;;;;;;;21.10;11.27;;;;;;;11.88;100.00;101631.56;5244481;28;20025;-78
2024/03/19 04:04:15;;;;;;;15.57;11.75;;;;;;;11.91;100.00;101644.47;5244093;28;20032;-78
2024/03/19 04:06:49;;;;;;;14.10;11.90;;;;;;;12.00;100.00;101643.72;5245786;28;20037;-77
2024/03/19 04:09:21;;;;;;;17.10;12.45;;;;;;;11.92;100.00;101638.25;5244576;28;20063;-77
2024/03/19 04:11:53;;;;;;;16.98;12.35;;;;;;;11.91;100.00;101642.66;5243552;28;20041;-78
2024/03/19 04:14:26;;;;;;;16.95;11.45;;;;;;;11.92;100.00;101649.56;5227670;28;20040;-77
2024/03/19 04:16:58;;;;;;;15.57;12.25;;;;;;;11.96;100.00;101646.72;5244366;28;20686;-78
2024/03/19 04:19:30;;;;;;;16.25;11.93;;;;;;;11.93;100.00;101639.91;5244919;28;20032;-78
2024/03/19 04:22:02;;;;;;;16.20;12.48;;;;;;;11.92;100.00;101644.31;5244689;28;20032;-78
2024/03/19 04:24:33;;;;;;;17.92;12.98;;;;;;;11.87;100.00;101643.03;5244597;28;20098;-78
2024/03/19 04:27:05;;;;;;;16.85;12.18;;;;;;;11.88;100.00;101640.28;5245410;28;20037;-78
2024/03/19 04:29:37;;;;;;;16.35;11.73;;;;;;;11.93;100.00;101648.66;5243185;28;20273;-78
2024/03/19 04:32:09;;;;;;;15.85;12.65;;;;;;;11.95;100.00;101645.88;5244710;28;20517;-78
2024/03/19 04:34:41;;;;;;;19.98;13.10;;;;;;;11.95;100.00;101652.94;5244154;28;20091;-78
2024/03/19 04:37:13;;;;;;;16.58;13.65;;;;;;;11.83;100.00;101634.56;5244621;28;20037;-78
2024/03/19 04:39:45;;;;;;;16.88;13.80;;;;;;;11.85;100.00;101640.50;5243297;28;20059;-78
2024/03/19 04:42:19;;;;;;;17.00;13.40;;;;;;;11.95;100.00;101645.88;5241932;28;20111;-78
2024/03/19 04:44:51;;;;;;;17.35;13.30;;;;;;;11.92;100.00;101654.84;5246210;28;20025;-78
2024/03/19 04:47:23;;;;;;;16.08;13.27;;;;;;;11.93;100.00;101645.16;5246500;28;20043;-78
2024/03/19 04:49:55;;;;;;;18.05;13.98;;;;;;;11.87;100.00;101643.84;5245927;28;20666;-78
2024/03/19 04:52:27;;;;;;;17.08;13.30;;;;;;;11.92;100.00;101644.31;5246486;28;20033;-78
2024/03/19 04:54:58;;;;;;;18.73;14.23;;;;;;;11.92;100.00;101649.56;5248262;28;20044;-78
2024/03/19 04:57:30;;;;;;;19.30;14.13;;;;;;;11.95;100.00;101655.56;5247329;28;20025;-78
2024/03/19 05:00:03;;;;;;;17.08;13.50;;;;;;;11.95;100.00;101653.78;5248586;28;20040;-78
2024/03/19 05:02:35;;;;;;;17.43;13.07;;;;;;;11.99;100.00;101652.56;5246920;28;20021;-78
2024/03/19 05:05:07;;;;;;;17.95;13.60;;;;;;;11.80;100.00;101650.50;5248152;28;20056;-78
2024/03/19 05:07:40;;;;;;;15.48;12.80;;;;;;;11.79;100.00;101659.34;5251240;28;20033;-79
2024/03/19 05:10:12;;;;;;;22.38;13.23;;;;;;;11.78;100.00;101644.56;5252683;28;20032;-79
2024/03/19 05:12:44;;;;;;;15.90;12.38;;;;;;;11.88;100.00;101656.03;5252901;28;20051;-79
2024/03/19 05:15:16;;;;;;;23.50;14.48;;;;;;;11.84;100.00;101638.00;5253339;28;20028;-79
2024/03/19 05:17:48;;;;;;;17.33;12.90;;;;;;;11.92;100.00;101646.94;5253975;28;20052;-79
2024/03/19 05:20:20;;;;;;;18.98;12.73;;;;;;;11.92;100.00;101643.50;5251884;28;20036;-79
2024/03/19 05:22:52;;;;;;;18.58;12.60;;;;;;;11.93;100.00;101648.66;5251332;28;20474;-79
2024/03/19 05:25:24;;;;;;;16.13;11.70;;;;;;;11.91;100.00;101641.84;5254088;28;20033;-79
2024/03/19 05:27:56;;;;;;;17.95;12.48;;;;;;;11.86;100.00;101633.50;5251488;28;20021;-78
2024/03/19 05:30:29;;;;;;;16.90;12.35;;;;;;;12.02;100.00;101649.72;5253121;28;20044;-78
2024/03/19 05:33:02;;;;;;;16.77;11.60;;;;;;;11.98;100.00;101650.06;5251267;28;20044;-79
2024/03/19 05:35:33;;;;;;;17.03;11.57;;;;;;;11.98;100.00;101653.53;5251705;28;20037;-79
2024/03/19 05:38:05;;;;;;;19.13;11.65;;;;;;;11.91;100.00;101649.72;5250305;28;20080;-78
2024/03/19 05:40:37;;;;;;;15.35;11.10;;;;;;;11.96;100.00;101657.22;5251571;28;20036;-79
2024/03/19 05:43:09;;;;;;;15.20;10.85;;;;;;;11.93;100.00;101648.66;5250580;28;20049;-79
2024/03/19 05:45:41;;;;;;;13.65;10.68;;;;;;;12.00;100.00;101659.50;5252805;28;20067;-79
2024/03/19 05:48:13;;;;;;;13.82;10.88;;;;;;;11.96;100.00;101663.31;5250144;28;20033;-79
2024/03/19 05:50:45;;;;;;;12.60;10.43;;;;;;;11.96;100.00;101665.94;5249098;28;20040;-79
2024/03/19 05:53:17;;;;;;;14.55;11.05;;;;;;;11.95;100.00;101663.44;5250087;28;20035;-79
2024/03/19 05:55:49;;;;;;;15.70;10.32;;;;;;;12.00;100.00;101664.75;5259284;28;20041;-78
2024/03/19 05:58:21;;;;;;;15.30;10.85;;;;;;;11.95;100.00;101663.44;5250124;28;20048;-78
2024/03/19 06:00:55;;;;;;;15.05;10.32;;;;;;;11.95;100.00;101668.69;5244577;28;20560;-78
2024/03/19 06:03:27;;;;;;;15.40;10.77;;;;;;;11.88;100.00;101657.81;5244408;28;20382;-79
2024/03/19 06:06:08;;;;;;;13.77;9.50;;;;;;;11.98;100.00;101669.28;5246610;28;20045;-79
2024/03/19 06:08:40;;;;;;;16.90;10.82;;;;;;;11.96;100.00;101670.34;5245515;28;20298;-78
2024/03/19 06:11:12;;;;;;;12.70;9.55;;;;;;;11.98;100.00;101668.47;5245296;28;20044;-79
2024/03/19 06:13:44;;;;;;;13.18;9.85;;;;;;;11.91;100.00;101671.56;5243580;28;20041;-79
2024/03/19 06:16:17;;;;;;;16.92;9.82;;;;;;;11.88;100.00;101663.06;5247419;28;20063;-79
2024/03/19 06:18:48;;;;;;;14.18;9.52;;;;;;;12.04;100.00;101686.34;5246783;28;20422;-79
2024/03/19 06:21:21;;;;;;;14.40;8.35;;;;;;;11.94;100.00;101670.50;5246259;28;20032;-79
2024/03/19 06:23:52;;;;;;;12.93;8.73;;;;;;;11.94;100.00;101673.13;5240463;28;20039;-79
2024/03/19 06:26:25;;;;;;;12.57;8.27;;;;;;;12.03;100.00;101684.69;5245789;28;20466;-79
2024/03/19 06:28:56;;;;;;;19.38;10.10;;;;;;;11.99;100.00;101678.84;5246258;28;20037;-79
2024/03/19 06:31:28;;;;;;;11.38;8.45;;;;;;;12.01;100.00;101692.69;5246403;28;20036;-79
2024/03/19 06:34:01;;;;;;;11.30;8.43;;;;;;;12.03;100.00;101697.81;5245671;28;20761;-79
2024/03/19 06:36:32;;;;;;;12.65;9.10;;;;;;;12.04;100.00;101688.97;5247314;28;20512;-79
2024/03/19 06:39:04;;;;;;;16.00;8.93;;;;;;;12.06;100.00;101689.72;5246967;28;20043;-79
2024/03/19 06:41:36;;;;;;;13.80;7.95;;;;;;;12.03;100.00;101682.06;5247954;28;20044;-79
2024/03/19 06:44:08;;;;;;;10.43;7.75;;;;;;;12.06;100.00;101681.81;5246148;28;20045;-79
2024/03/19 06:46:40;;;;;;;14.35;7.78;;;;;;;12.09;100.00;101681.59;5228165;28;20040;-79
2024/03/19 06:49:13;;;;;;;14.63;8.35;;;;;;;12.09;100.00;101687.69;5245446;28;20135;-79
2024/03/19 06:51:45;;;;;;;15.25;8.25;;;;;;;12.16;100.00;101688.03;5241083;28;20044;-79
2024/03/19 06:54:17;;;;;;;15.07;8.38;;;;;;;12.08;100.00;101675.47;5244478;28;20585;-79
2024/03/19 06:56:49;;;;;;;15.48;7.70;;;;;;;12.18;100.00;101686.94;5246119;28;20033;-79
2024/03/19 06:59:24;;;;;;;10.07;7.25;;;;;;;12.19;100.00;101690.41;5241450;28;20031;-79
2024/03/19 07:01:56;;;;;;;13.63;7.95;;;;;;;12.19;100.00;101674.66;5252946;28;20040;-79
2024/03/19 07:04:29;;;;;;;13.10;8.35;;;;;;;12.27;100.00;101693.25;5259707;28;20025;-79
2024/03/19 07:07:02;;;;;;;12.40;7.82;;;;;;;12.32;100.00;101688.50;5253046;28;20025;-80
2024/03/19 07:09:34;;;;;;;12.10;7.72;;;;;;;12.24;100.00;101683.03;5256322;28;20040;-80
2024/03/19 07:12:07;;;;;;;13.25;7.78;;;;;;;12.27;100.00;101674.03;5253186;28;20064;-80
2024/03/19 07:14:39;;;;;;;12.20;7.75;;;;;;;12.38;100.00;101677.50;5253379;28;20343;-80
2024/03/19 07:17:11;;;;;;;12.38;7.20;;;;;;;12.51;100.00;101689.69;5249409;28;20037;-80
2024/03/19 07:19:43;;;;;;;14.55;7.90;;;;;;;12.50;100.00;101685.38;5246147;28;20960;-80
2024/03/19 07:22:15;;;;;;;11.65;6.97;;;;;;;12.58;100.00;101693.50;5244175;28;20204;-80
2024/03/19 07:24:47;;;;;;;9.00;6.07;;;;;;;12.64;100.00;101690.38;5247601;28;20413;-80
2024/03/19 07:27:20;;;;;;;11.95;7.60;;;;;;;12.70;100.00;101697.78;5245909;28;20017;-80
2024/03/19 07:29:51;;;;;;;11.48;6.35;;;;;;;12.76;100.00;101699.06;5247617;28;20044;-79
2024/03/19 07:32:23;;;;;;;9.35;6.20;;;;;;;12.77;100.00;101691.06;5250595;28;20392;-80
2024/03/19 07:34:55;;;;;;;11.07;6.60;;;;;;;12.88;100.00;101709.44;5250184;28;20040;-80
2024/03/19 07:37:27;;;;;;;14.00;6.85;;;;;;;12.96;100.00;101700.94;5250096;28;20115;-80
2024/03/19 07:39:59;;;;;;;11.80;6.20;;;;;;;13.03;100.00;101706.50;5250374;28;20033;-80
2024/03/19 07:42:31;;;;;;;10.85;5.68;;;;;;;13.06;100.00;101703.63;5249091;28;20148;-80
2024/03/19 07:45:05;;;;;;;11.60;5.93;;;;;;;13.10;100.00;101697.16;5247687;28;20047;-80
2024/03/19 07:47:37;;;;;;;8.43;5.20;;;;;;;13.18;100.00;101705.25;5248517;28;20028;-80
2024/03/19 07:50:10;;;;;;;9.98;5.78;;;;;;;13.25;100.00;101708.25;5251879;28;20736;-79
2024/03/19 07:52:42;;;;;;;12.68;5.53;;;;;;;13.35;100.00;101699.47;5250976;28;20382;-80
2024/03/19 07:55:14;;;;;;;12.95;5.85;;;;;;;13.39;100.00;101703.53;5251699;28;20111;-80
2024/03/19 07:57:46;;;;;;;11.70;5.75;;;;;;;13.45;100.00;101710.09;5251502;28;20044;-80
2024/03/19 08:00:19;;;;;;;10.32;5.70;;;;;;;13.43;100.00;101690.94;5251547;28;20059;-80
2024/03/19 08:02:50;;;;;;;9.70;5.50;;;;;;;13.53;100.00;101699.75;5252782;28;20253;-80
2024/03/19 08:05:22;;;;;;;8.90;4.90;;;;;;;13.58;100.00;101709.88;5254146;28;20082;-80
2024/03/19 08:07:54;;;;;;;8.52;5.15;;;;;;;13.59;100.00;101715.00;5250381;28;20037;-80
2024/03/19 08:10:26;;;;;;;10.77;5.15;;;;;;;13.57;100.00;101697.69;5253033;28;20033;-80
2024/03/19 08:12:59;;;;;;;9.23;4.35;;;;;;;13.59;100.00;101701.00;5251699;28;20043;-80
2024/03/19 08:15:32;;;;;;;7.80;4.32;;;;;;;13.64;100.00;101704.13;5250302;28;20434;-80
2024/03/19 08:18:04;;;;;;;9.18;4.55;;;;;;;13.65;100.00;101694.41;5252087;28;20028;-80
2024/03/19 08:20:37;;;;;;;11.90;6.25;;;;;;;13.81;100.00;101707.94;5251134;28;20032;-80
2024/03/19 08:23:09;;;;;;;8.87;4.30;;;;;;;13.85;100.00;101712.81;5252126;28;20565;-80
2024/03/19 08:25:42;;;;;;;9.65;4.45;;;;;;;13.93;100.00;101720.06;5252600;28;20280;-80
2024/03/19 08:28:13;;;;;;;9.25;4.43;;;;;;;13.93;100.00;101721.88;5253310;28;20029;-80
2024/03/19 08:30:48;;;;;;;9.23;4.93;;;;;;;13.96;100.00;101713.72;5256857;28;20032;-80
2024/03/19 08:33:19;;;;;;;9.80;4.55;;;;;;;13.92;100.00;101713.13;5254258;28;20033;-80
2024/03/19 08:35:51;;;;;;;7.78;3.90;;;;;;;13.93;100.00;101719.25;5253306;28;20039;-80
2024/03/19 08:38:23;;;;;;;8.55;4.00;;;;;;;13.94;100.00;101716.50;5252990;28;20029;-80
2024/03/19 08:40:55;;;;;;;10.55;4.45;;;;;;;13.99;100.00;101709.03;5255446;28;20032;-80
2024/03/19 08:43:28;;;;;;;11.90;4.80;;;;;;;13.99;100.00;101702.94;5251876;28;20068;-80
2024/03/19 08:46:00;;;;;;;9.00;4.63;;;;;;;14.15;100.00;101713.81;5252689;28;20399;-80
2024/03/19 08:48:32;;;;;;;8.23;3.80;;;;;;;14.14;100.00;101721.84;5251106;28;20040;-80
2024/03/19 08:51:04;;;;;;;8.63;3.42;;;;;;;14.17;100.00;101726.84;5251964;28;20037;-80
2024/03/19 08:53:36;;;;;;;9.02;4.05;;;;;;;14.12;100.00;101724.59;5253862;28;20025;-80
2024/03/19 08:56:08;;;;;;;8.38;3.15;;;;;;;14.18;100.00;101729.34;5252536;28;20029;-80
2024/03/19 08:58:41;;;;;;;6.18;2.92;;;;;;;14.24;100.00;101739.34;5252295;28;20039;-80
2024/03/19 09:01:14;;;;;;;7.13;3.10;;;;;;;14.31;100.00;101731.75;5252325;28;20033;-80
2024/03/19 09:03:46;;;;;;;10.18;2.88;;;;;;;14.38;100.00;101729.44;5251660;28;20213;-80
2024/03/19 09:06:19;;;;;;;6.65;2.70;;;;;;;14.47;100.00;101721.56;5253756;28;20064;-80
2024/03/19 09:08:50;;;;;;;6.03;2.60;;;;;;;14.61;100.00;101725.66;5253897;28;20032;-80
2024/03/19 09:11:22;;;;;;;5.13;2.13;;;;;;;14.56;100.00;101718.16;5254479;28;20035;-80
2024/03/19 09:13:54;;;;;;;5.63;2.70;;;;;;;14.67;100.00;101725.13;5252707;28;20124;-80
2024/03/19 09:16:26;;;;;;;7.40;2.53;;;;;;;14.66;100.00;101720.81;5252744;28;20136;-80
2024/03/19 09:18:58;;;;;;;7.30;2.35;;;;;;;14.74;100.00;101726.25;5252625;28;20036;-80
2024/03/19 09:21:31;;;;;;;6.00;2.78;;;;;;;14.74;100.00;101723.63;5252640;28;20123;-80
2024/03/19 09:24:03;;;;;;;6.10;2.75;;;;;;;14.86;100.00;101728.78;5252670;28;20033;-80
2024/03/19 09:26:35;;;;;;;6.85;2.42;;;;;;;14.80;100.00;101714.31;5253126;28;20083;-80
2024/03/19 09:29:07;;;;;;;5.32;2.28;;;;;;;14.95;100.00;101731.41;5256673;28;20017;-80
2024/03/19 09:31:39;;;;;;;7.07;3.38;;;;;;;15.01;100.00;101724.75;5258366;28;20033;-80
2024/03/19 09:34:11;;;;;;;7.57;2.97;;;;;;;15.17;100.00;101722.41;5255353;28;20091;-80
2024/03/19 09:36:43;;;;;;;6.00;2.38;;;;;;;15.31;100.00;101724.63;5257126;28;20111;-80
2024/03/19 09:39:15;;;;;;;4.38;1.85;;;;;;;15.42;100.00;101733.38;5256711;28;20035;-80
2024/03/19 09:42:02;;;;;;;5.57;2.40;;;;;;;15.74;100.00;101733.09;5257379;28;20063;-80
2024/03/19 09:44:34;;;;;;;6.45;2.22;;;;;;;15.60;100.00;101721.13;5256979;28;20053;-80
2024/03/19 09:47:06;;;;;;;5.45;1.80;;;;;;;15.77;100.00;101730.16;5257823;28;20025;-80
2024/03/19 09:49:38;;;;;;;5.10;2.07;;;;;;;15.85;100.00;101725.00;5255687;28;20045;-80
2024/03/19 09:52:13;;;;;;;5.05;1.88;;;;;;;15.94;100.00;101724.13;5258957;28;20123;-80
2024/03/19 09:54:45;;;;;;;6.32;2.03;;;;;;;15.95;100.00;101722.34;5255303;28;20040;-80
2024/03/19 09:57:18;;;;;;;4.32;1.90;;;;;;;16.15;99.75;101721.28;5255500;28;20036;-80
2024/03/19 09:59:50;;;;;;;6.10;2.03;;;;;;;16.34;96.21;101727.47;5253992;28;20394;-80
2024/03/19 10:02:22;;;;;;;4.53;2.08;;;;;;;16.49;98.62;101721.56;5255825;28;20040;-80
2024/03/19 10:04:54;;;;;;;6.25;2.25;;;;;;;16.60;94.13;101714.41;5256063;28;20740;-80
2024/03/19 10:07:26;;;;;;;6.75;2.25;;;;;;;16.73;90.39;101715.72;5254425;28;20036;-80
2024/03/19 10:09:58;;;;;;;7.38;1.88;;;;;;;16.77;81.17;101700.38;5253980;28;20032;-80
2024/03/19 10:12:31;;;;;;;4.38;1.50;;;;;;;17.06;85.15;101708.13;5249296;28;20501;-80
2024/03/19 10:15:05;;;;;;;6.00;1.67;;;;;;;17.12;80.54;101699.59;5252573;28;20033;-80
2024/03/19 10:17:37;;;;;;;6.75;1.90;;;;;;;17.03;75.17;101671.38;5253182;28;20033;-80
2024/03/19 10:20:11;;;;;;;5.35;2.00;;;;;;;17.23;74.98;101701.97;5252159;28;21142;-80
2024/03/19 10:22:47;;;;;;;6.20;2.10;;;;;;;17.44;80.04;101695.53;5253576;28;20517;-80
2024/03/19 10:25:19;;;;;;;5.68;1.60;;;;;;;17.41;75.17;101693.19;5254346;28;20029;-80
2024/03/19 10:27:51;;;;;;;5.95;1.90;;;;;;;17.35;75.09;101693.78;5250680;28;20043;-80
2024/03/19 10:30:24;;;;;;;5.97;1.65;;;;;;;17.44;73.82;101692.88;5250662;28;20533;-80
2024/03/19 10:32:56;;;;;;;;;;;;;;;18.23;72.50;101690.06;5260423;28;20025;-80
2024/03/19 10:35:29;;;;;;;6.00;1.42;;;;;;;17.49;66.63;101680.00;5263147;28;20378;-80
2024/03/19 10:38:02;;;;;;;5.97;1.88;;;;;;;17.68;67.77;101685.09;5263050;28;20033;-80
2024/03/19 10:40:35;;;;;;;5.93;1.58;;;;;;;17.73;67.42;101669.56;5264264;28;20371;-80
2024/03/19 10:43:14;;;;;;;4.75;1.20;;;;;;;17.98;66.94;101678.50;5266223;28;20068;-80
2024/03/19 10:45:49;;;;;;;7.75;1.80;;;;;;;17.93;63.51;101687.94;5270319;28;20060;-80
2024/03/19 10:48:21;;;;;;;6.88;2.10;;;;;;;18.12;68.27;101686.88;5260933;28;20340;-80
2024/03/19 10:50:54;;;;;;;6.78;2.17;;;;;;;18.19;62.89;101675.47;5261690;28;20569;-80
2024/03/19 10:53:29;;;;;;;6.38;1.92;;;;;;;18.24;62.47;101670.50;5266482;28;20047;-80
2024/03/19 10:56:04;;;;;;;6.93;1.30;;;;;;;18.28;60.23;101670.19;5244897;28;20064;-80
2024/03/19 10:58:36;;;;;;;6.97;1.70;;;;;;;18.28;58.76;101668.34;5262677;28;20029;-80
2024/03/19 11:01:16;;;;;;;5.37;1.70;;;;;;;18.35;60.16;101663.25;5262840;28;20071;-80
2024/03/19 11:03:54;;;;;;;6.38;1.88;;;;;;;18.39;60.42;101654.78;5263315;28;20751;-80
2024/03/19 11:06:26;;;;;;;7.43;1.65;;;;;;;18.31;60.12;101672.53;5262925;28;20064;-80
2024/03/19 11:08:58;;;;;;;5.75;1.98;;;;;;;18.36;59.63;101672.84;5259503;28;20025;-80
2024/03/19 11:11:35;;;;;;;6.93;2.10;;;;;;;18.48;59.36;101668.91;5264878;28;20029;-80
2024/03/19 11:14:16;;;;;;;6.68;1.88;;;;;;;18.63;59.81;101677.06;5265073;28;20040;-80
2024/03/19 11:16:48;;;;;;;4.72;1.65;;;;;;;18.51;56.41;101670.41;5263761;28;20032;-80
2024/03/19 11:19:25;;;;;;;6.45;1.77;;;;;;;18.84;59.33;101674.00;5260182;28;20453;-80
2024/03/19 11:21:58;;;;;;;6.05;1.90;;;;;;;18.76;55.84;101666.03;5250073;28;20037;-80
2024/03/19 11:24:38;;;;;;;5.72;1.63;;;;;;;19.07;57.27;101677.66;5249115;28;20028;-81
2024/03/19 11:27:16;;;;;;;6.45;1.80;;;;;;;19.22;57.24;101669.03;5247575;28;20465;-80
2024/03/19 11:29:49;;;;;;;4.57;1.52;;;;;;;19.18;55.51;101666.72;5247691;28;20040;-81
2024/03/19 11:32:23;;;;;;;4.47;1.97;;;;;;;19.41;56.77;101664.19;5245782;28;20039;-80